首页
METAR-TAF:

METAR-TAF

机场 :

努瓜婁發國際機場

汤加塔布岛, 汤加

纬度: 21-14S, 经度: 175-09W, 海拔: 38米

当前天气观测

该预报发布于35分钟前的05:00 UTC
风速13节,风向东转东南
温度 23°C
湿度 69%
气压 1018 hPa
能见度10公里或以上
少量云层高于1000英尺
多云层高于4000英尺

METAR: NFTF 190500Z 12013KT 9999 FEW010 BKN040 23/17 Q1018

时间: 18:35 (05:35 UTC)

预报

该预报发布于24分钟前的05:11 UTC
预报有效从19日的 06点(UTC)到 20日的 06点(UTC)
风速12节,风向东转东南
能见度10公里或以上
少量云层高于900英尺
散云层高于1600英尺
多云层高于4000英尺

TAF: NFTF 190511Z 1906/2006 11012KT 9999 FEW009 SCT016 BKN040

超过4000个机场的气象观测和天气预报(METAR&TAF报告)。

可查询的气象台以黄色和红色小点在地图上表示。

将鼠标移到小点上方,可查看气象台名称。

然后点击查看天气观测和预报。

如需切换地图:点击带黑十字的绿色按钮放大地图;点击带横线的绿色按钮缩小地图;或者点击绿色箭头查看邻近地区的地图。


METAR-TAF: